Avoca, Pennsylvania
Current Conditions -  °F | °C
As of 7:54 PM on Friday 28 Nov 2014 (Local Time) from KAVP Reporting Station
Clear Clear  
Wind Chill: -12°   Ceiling: Unl
Heat Index: -7°   Visibility: 10mi
Dew Point: -12°   Wind: 7mph
Humidity: 65%   Direction: 160°SSE
Pressure: 30.21"   Gusts: NA
Location:  41.3331°N, 75.7365°W
Report Text: KAVP 290054Z 16006KT 10SM CLR M07/M12 A3021 RMK AO2 SLP243 T10671122
Loading
Personal Weather Stations






























Interactive Weather Map New forecast layout! Learn more

10-Day Weather Forecast

Advertisements
Track Severe Weather on mobile